TimeAKDT,TemperatureF,Dew PointF,Humidity,Sea Level PressureIn,VisibilityMPH,Wind Direction,Wind SpeedMPH,Gust SpeedMPH,PrecipitationIn,Events,Conditions,WindDirDegrees,DateUTC
12:53 AM,42.1,41.0,96,29.49,10.0,West,4.6,-,N/A,,Overcast,270,2012-09-20 08:53:00
1:53 AM,41.0,39.9,96,29.51,10.0,WNW,4.6,-,N/A,,Overcast,290,2012-09-20 09:53:00
2:53 AM,41.0,39.9,96,29.52,10.0,Calm,Calm,-,N/A,,Overcast,0,2012-09-20 10:53:00
3:23 AM,41.0,39.2,93,29.53,10.0,Calm,Calm,-,N/A,,Overcast,0,2012-09-20 11:23:00
3:31 AM,42.8,39.2,87,29.52,10.0,Calm,Calm,-,N/A,,Overcast,0,2012-09-20 11:31:00
3:53 AM,41.0,39.9,96,29.53,10.0,Calm,Calm,-,N/A,,Overcast,0,2012-09-20 11:53:00
4:53 AM,41.0,39.9,96,29.55,10.0,Calm,Calm,-,N/A,,Overcast,0,2012-09-20 12:53:00
5:53 AM,41.0,39.9,96,29.56,10.0,Calm,Calm,-,N/A,,Overcast,0,2012-09-20 13:53:00
6:15 AM,41.0,39.2,93,29.56,10.0,Calm,Calm,-,N/A,,Overcast,0,2012-09-20 14:15:00
6:53 AM,39.9,39.9,100,29.57,10.0,Calm,Calm,-,N/A,,Overcast,0,2012-09-20 14:53:00
7:17 AM,39.2,39.2,100,29.57,10.0,Calm,Calm,-,N/A,,Overcast,0,2012-09-20 15:17:00
7:53 AM,39.9,39.0,97,29.58,10.0,Calm,Calm,-,N/A,,Overcast,0,2012-09-20 15:53:00
8:23 AM,39.2,39.2,100,29.59,10.0,Calm,Calm,-,N/A,,Overcast,0,2012-09-20 16:23:00
8:53 AM,39.9,39.0,97,29.60,10.0,Calm,Calm,-,N/A,,Overcast,0,2012-09-20 16:53:00
9:53 AM,39.9,39.9,100,29.61,10.0,Calm,Calm,-,N/A,,Mostly Cloudy,0,2012-09-20 17:53:00
10:53 AM,41.0,39.9,96,29.62,10.0,ENE,3.5,-,N/A,,Overcast,70,2012-09-20 18:53:00
11:41 AM,42.8,41.0,93,29.64,10.0,Calm,Calm,-,N/A,,Mostly Cloudy,0,2012-09-20 19:41:00
11:53 AM,43.0,41.0,93,29.64,10.0,Calm,Calm,-,N/A,,Mostly Cloudy,0,2012-09-20 19:53:00
12:53 PM,43.0,39.9,89,29.65,10.0,East,3.5,-,N/A,,Overcast,90,2012-09-20 20:53:00
1:25 PM,44.6,39.2,81,29.65,10.0,Calm,Calm,-,N/A,,Overcast,0,2012-09-20 21:25:00
1:53 PM,44.1,39.9,85,29.65,10.0,Calm,Calm,-,N/A,,Mostly Cloudy,0,2012-09-20 21:53:00
2:53 PM,44.1,39.9,85,29.65,10.0,SSE,3.5,-,N/A,,Overcast,160,2012-09-20 22:53:00
3:53 PM,44.1,39.9,85,29.66,10.0,SSE,4.6,-,N/A,,Overcast,150,2012-09-20 23:53:00
4:00 PM,44.6,39.2,81,29.66,10.0,South,4.6,-,N/A,,Overcast,180,2012-09-21 00:00:00
4:53 PM,45.0,39.0,80,29.66,10.0,WSW,3.5,-,N/A,,Overcast,240,2012-09-21 00:53:00
5:11 PM,44.6,39.2,81,29.65,10.0,NNE,5.8,-,N/A,,Overcast,20,2012-09-21 01:11:00
5:53 PM,43.0,39.0,86,29.66,10.0,ENE,4.6,-,0.00,,Mostly Cloudy,60,2012-09-21 01:53:00
6:53 PM,44.1,39.9,85,29.67,10.0,SE,3.5,-,N/A,,Mostly Cloudy,130,2012-09-21 02:53:00
7:53 PM,44.1,37.9,79,29.67,10.0,ESE,5.8,-,N/A,,Overcast,120,2012-09-21 03:53:00
8:53 PM,42.1,37.9,85,29.68,10.0,NNE,6.9,-,N/A,,Overcast,20,2012-09-21 04:53:00
9:53 PM,41.0,39.0,93,29.68,10.0,North,5.8,-,N/A,,Mostly Cloudy,10,2012-09-21 05:53:00
10:53 PM,41.0,37.0,86,29.68,10.0,Calm,Calm,-,N/A,,Mostly Cloudy,0,2012-09-21 06:53:00
11:00 PM,41.0,37.4,87,29.68,10.0,Calm,Calm,-,N/A,,Overcast,0,2012-09-21 07:00:00
11:53 PM,39.9,36.0,86,29.69,10.0,North,5.8,-,N/A,,Overcast,350,2012-09-21 07:53:00